Bellingham, WA (98226)

2:46 AM PDT on October 20, 2014 (GMT -0700)
Alabama Hill - Illinois Lane | Change Station
CLOSE
Current Station
Personal Weather Station
Location: Bellingham, WA
Elevation: 364 ft
Nearby Weather Stations

Elev 364 ft 48.77 °N, 122.43 °W | Updated 4 seconds ago

Rain
Rain
59.0 °F
Feels Like 59.0 °F
N
4.0
Wind Variable Wind from SE
Gusts 16.0 mph

Today
High -- | Low -- °F
--% Chance of Precip.
Yesterday
High -- | Low -- °F
Precip. -- in
7:37 AM 6:10 PM
Waning Crescent, 12% visible
Pressure 29.68 in
Visibility 8.0 miles
Clouds Overcast 8000 ft
Dew Point 56 °F
Humidity 89%
Rainfall 0.32 in
Snow Depth Not available.
UV 0 out of 12
Pollen .70 out of 12
PM2.5 Good
Flu Activity Sporadic
METAR KBLI 200853Z AUTO 12007KT 8SM -RA OVC080 16/13 A2966 RMK AO2 SLP048 P0007 60040 T01560133 50005

More Conditions Fewer Conditions

Pressure 29.68 in
Visibility 8.0 miles
Clouds Overcast 8000 ft
Dew Point 56 °F
Humidity 89%
Rainfall 0.32 in
Snow Depth Not available.
UV 0 out of 12
Pollen .70 out of 12
PM2.5 Good
Flu Activity Sporadic
METAR KBLI 200853Z AUTO 12007KT 8SM -RA OVC080 16/13 A2966 RMK AO2 SLP048 P0007 60040 T01560133 50005

More Conditions Fewer Conditions

10-Day Weather Forecast

Almanac

Astronomy

Oct. 20, 2014 Rise Set
Actual Time 7:37 AM PDT 6:10 PM PDT
Civil Twilight 7:05 AM PDT 6:42 PM PDT
Nautical Twilight 6:29 AM PDT 7:19 PM PDT
Astronomical Twilight 5:52 AM PDT 7:55 PM PDT
Moon 4:16 AM PDT 4:48 PM PDT
Length of Visible Light 11h 36m
Length of Day
10h 32m
Waning Crescent, 12% of the Moon is Illuminated
Today
Waning Crescent
Oct 23
New
Oct 30
First Quarter
Nov 6
Full
Nov 14
Last Quarter

Today's Extremes

State Highs State Lows

Community

WunderPhotos

Upload Photos

1,763,325 photos uploaded!

Nearby

Air Quality

  Air Quality AQ Index Pollutant
Yesterday Good
OZONE
Yesterday Good
PM2.5
Current Good
PM2.5
Monday Good
OZONE
Monday Good
PM2.5

Snow Depth

Station Depth Elevation
Mf Nooksack 4 in 4980 ft
Wells Creek 0 in 4200 ft
Beaver Pass 0 in 3620 ft
Dungeness 0 in 4100 ft
Park Creek Ridge 0 in 4600 ft

Earthquake Activity

City Distance Mag. Time & Date
No recent earthquake activity has been reported nearby.
Minimum magnitude displayed is 2.5.

Coastal Water Temperatures

Place Temperature
Port Townsend, WA 53.1 °F
Friday Harbor, WA 51.1 °F
Port Angeles, WA 57.0 °F

Nearby Weather Stations